Time;durP1;ratioP1;P1;durP2;ratioP2;P2;SDS_P1;SDS_P2;PMS_P1;PMS_P2;Temp;Humidity;BMP_temperature;BMP_pressure;BME280_temperature;BME280_humidity;BME280_pressure;Samples;Min_cycle;Max_cycle;Signal;HPM_P1;HPM_P2
2022/03/11 00:01:32;;;;;;;21.37;9.70;;;3.80;1.00;;;;;;4895153;29;20195;-51
2022/03/11 00:03:57;;;;;;;21.80;9.30;;;3.70;1.00;;;;;;4895170;29;20211;-51
2022/03/11 00:06:23;;;;;;;17.37;9.00;;;3.70;1.00;;;;;;4895036;29;20765;-51
2022/03/11 00:08:49;;;;;;;16.97;8.80;;;3.70;1.00;;;;;;4890652;29;20203;-51
2022/03/11 00:11:16;;;;;;;18.27;9.47;;;3.70;1.00;;;;;;4895202;29;20194;-51
2022/03/11 00:13:42;;;;;;;20.00;9.80;;;3.60;1.00;;;;;;4894669;29;20428;-51
2022/03/11 00:16:08;;;;;;;17.97;9.20;;;3.60;1.00;;;;;;4893961;29;20452;-51
2022/03/11 00:18:34;;;;;;;13.83;8.33;;;3.60;1.00;;;;;;4895034;29;20926;-51
2022/03/11 00:20:59;;;;;;;15.87;9.00;;;3.70;1.00;;;;;;4894989;29;21032;-51
2022/03/11 00:23:25;;;;;;;16.13;9.60;;;3.60;1.00;;;;;;4893753;29;20467;-51
2022/03/11 00:25:50;;;;;;;14.10;7.90;;;3.60;1.00;;;;;;4892254;29;20192;-51
2022/03/11 00:28:16;;;;;;;19.10;9.87;;;3.50;1.00;;;;;;4894764;29;20191;-51
2022/03/11 00:30:41;;;;;;;14.07;8.90;;;3.50;1.00;;;;;;4894651;29;20271;-51
2022/03/11 00:33:07;;;;;;;16.93;9.63;;;3.50;1.00;;;;;;4878094;29;20282;-52
2022/03/11 00:35:34;;;;;;;17.40;8.93;;;3.50;1.00;;;;;;4894358;29;20575;-50
2022/03/11 00:37:59;;;;;;;17.00;9.43;;;3.50;1.00;;;;;;4894545;29;20630;-51
2022/03/11 00:40:25;;;;;;;14.73;8.60;;;3.40;1.00;;;;;;4894158;29;20476;-52
2022/03/11 00:42:51;;;;;;;14.87;8.77;;;3.30;1.00;;;;;;4892970;29;20212;-51
2022/03/11 00:45:16;;;;;;;18.00;8.70;;;3.30;1.00;;;;;;4894517;29;20705;-52
2022/03/11 00:47:42;;;;;;;13.10;7.57;;;3.30;1.00;;;;;;4895436;29;20556;-52
2022/03/11 00:50:08;;;;;;;14.57;8.87;;;3.30;1.00;;;;;;4893603;29;20187;-51
2022/03/11 00:52:33;;;;;;;16.20;8.77;;;3.30;1.00;;;;;;4890936;29;20176;-50
2022/03/11 00:54:59;;;;;;;26.40;9.10;;;3.20;1.00;;;;;;4906120;29;20530;-50
2022/03/11 00:57:25;;;;;;;14.67;8.53;;;3.20;1.00;;;;;;4895471;29;20187;-50
2022/03/11 00:59:51;;;;;;;14.93;9.20;;;3.20;1.00;;;;;;4878272;29;20202;-51
2022/03/11 01:02:17;;;;;;;18.23;9.40;;;3.20;1.00;;;;;;4895497;29;20458;-51
2022/03/11 01:04:43;;;;;;;13.90;8.33;;;3.20;1.00;;;;;;4894417;29;20710;-51
2022/03/11 01:07:08;;;;;;;15.27;7.80;;;3.20;1.00;;;;;;4895334;29;20404;-51
2022/03/11 01:09:34;;;;;;;15.03;8.37;;;3.10;1.00;;;;;;4891384;29;20188;-51
2022/03/11 01:11:59;;;;;;;17.60;8.97;;;3.10;1.00;;;;;;4894659;29;20267;-51
2022/03/11 01:14:25;;;;;;;23.23;9.90;;;3.10;1.00;;;;;;4893771;29;20210;-51
2022/03/11 01:16:50;;;;;;;15.00;8.40;;;3.00;1.00;;;;;;4894221;29;20583;-51
2022/03/11 01:19:16;;;;;;;15.17;9.03;;;3.00;1.00;;;;;;4894008;29;20199;-51
2022/03/11 01:21:41;;;;;;;18.70;8.93;;;3.00;1.00;;;;;;4893954;29;20689;-50
2022/03/11 01:24:07;;;;;;;16.20;9.10;;;3.00;1.00;;;;;;4877485;29;20666;-50
2022/03/11 01:26:32;;;;;;;14.70;8.83;;;2.90;1.00;;;;;;4894025;29;20222;-50
2022/03/11 01:28:58;;;;;;;16.30;9.27;;;2.80;1.00;;;;;;4894689;29;20199;-51
2022/03/11 01:31:23;;;;;;;13.03;8.10;;;2.80;1.00;;;;;;4897556;29;20291;-51
2022/03/11 01:33:49;;;;;;;14.10;8.77;;;2.70;1.00;;;;;;4898086;29;20251;-50
2022/03/11 01:36:14;;;;;;;13.93;8.60;;;2.70;1.00;;;;;;4897193;29;20190;-51
2022/03/11 01:38:41;;;;;;;16.43;8.60;;;2.70;1.00;;;;;;4897819;29;20188;-51
2022/03/11 01:41:06;;;;;;;15.80;9.00;;;2.60;1.00;;;;;;4897307;29;20536;-51
2022/03/11 01:43:51;;;;;;;15.40;7.83;;;2.60;1.00;;;;;;4897466;29;20467;-50
2022/03/11 01:46:16;;;;;;;17.60;9.00;;;2.50;1.00;;;;;;4897732;29;20172;-50
2022/03/11 01:48:42;;;;;;;15.37;8.93;;;2.60;1.00;;;;;;4896678;29;20454;-50
2022/03/11 01:51:09;;;;;;;18.40;8.53;;;2.70;1.00;;;;;;4881119;29;20200;-51
2022/03/11 01:53:35;;;;;;;13.67;8.20;;;2.60;1.00;;;;;;4897478;29;20914;-50
2022/03/11 01:56:02;;;;;;;21.97;8.90;;;2.50;1.00;;;;;;4880364;29;20196;-51
2022/03/11 01:58:28;;;;;;;12.57;7.60;;;2.50;1.00;;;;;;4894032;29;20456;-51
2022/03/11 02:00:53;;;;;;;13.80;8.03;;;2.50;1.00;;;;;;4897657;29;20435;-51
2022/03/11 02:03:19;;;;;;;15.87;8.53;;;2.50;1.00;;;;;;4896724;29;20479;-51
2022/03/11 02:05:44;;;;;;;15.43;8.33;;;2.40;1.00;;;;;;4897443;29;20196;-51
2022/03/11 02:08:10;;;;;;;13.80;7.80;;;2.40;1.00;;;;;;4897219;29;20616;-51
2022/03/11 02:10:35;;;;;;;16.03;8.20;;;2.40;1.00;;;;;;4880353;29;20192;-51
2022/03/11 02:13:05;;;;;;;15.53;8.27;;;2.40;1.00;;;;;;4894373;29;20207;-52
2022/03/11 02:15:32;;;;;;;13.50;8.17;;;2.40;1.00;;;;;;4893877;29;20200;-51
2022/03/11 02:17:57;;;;;;;18.53;9.23;;;2.30;1.00;;;;;;4880688;29;21018;-51
2022/03/11 02:20:23;;;;;;;14.17;7.80;;;2.40;1.00;;;;;;4896991;29;20444;-50
2022/03/11 02:22:50;;;;;;;13.57;8.30;;;2.30;1.00;;;;;;4897209;29;20653;-50
2022/03/11 02:25:16;;;;;;;17.07;9.03;;;2.30;1.00;;;;;;4893303;29;20187;-51
2022/03/11 02:27:48;;;;;;;13.57;7.73;;;2.20;1.00;;;;;;4896993;29;20435;-51
2022/03/11 02:30:20;;;;;;;14.97;8.37;;;2.20;1.00;;;;;;4897252;29;20179;-51
2022/03/11 02:32:46;;;;;;;16.17;7.80;;;2.20;1.00;;;;;;4880039;29;20590;-51
2022/03/11 02:35:12;;;;;;;15.27;7.40;;;2.20;1.00;;;;;;4896583;29;20479;-51
2022/03/11 02:37:38;;;;;;;15.17;8.30;;;2.10;1.00;;;;;;4896386;29;20440;-50
2022/03/11 02:40:05;;;;;;;15.47;7.50;;;2.10;1.00;;;;;;4896966;29;21317;-50
2022/03/11 02:42:30;;;;;;;15.10;8.57;;;2.20;1.00;;;;;;4896453;29;20463;-50
2022/03/11 02:44:59;;;;;;;13.93;7.30;;;2.20;1.00;;;;;;4896605;29;20527;-50
2022/03/11 02:47:25;;;;;;;17.73;7.77;;;2.10;1.00;;;;;;4896511;29;20190;-50
2022/03/11 02:49:51;;;;;;;13.63;7.50;;;2.00;1.00;;;;;;4896466;29;20428;-50
2022/03/11 02:52:16;;;;;;;14.40;8.73;;;2.00;1.00;;;;;;4896625;29;20175;-51
2022/03/11 02:54:42;;;;;;;14.43;8.70;;;2.00;1.00;;;;;;4897424;29;20271;-50
2022/03/11 02:57:07;;;;;;;13.20;8.03;;;2.00;1.00;;;;;;4896678;29;20184;-50
2022/03/11 02:59:33;;;;;;;16.13;8.27;;;2.00;1.00;;;;;;4895510;29;20247;-51
2022/03/11 03:01:58;;;;;;;22.07;7.93;;;2.00;1.00;;;;;;4895966;29;21093;-51
2022/03/11 03:04:24;;;;;;;14.73;8.20;;;2.00;1.00;;;;;;4896008;29;20224;-50
2022/03/11 03:06:49;;;;;;;17.37;9.50;;;1.90;1.00;;;;;;4896020;29;20206;-50
2022/03/11 03:09:15;;;;;;;14.93;8.20;;;1.90;1.00;;;;;;4896413;29;20192;-50
2022/03/11 03:11:40;;;;;;;14.30;7.87;;;1.90;1.00;;;;;;4895659;29;20188;-50
2022/03/11 03:14:06;;;;;;;17.80;8.27;;;1.90;1.00;;;;;;4895907;29;20184;-50
2022/03/11 03:16:31;;;;;;;14.30;8.30;;;1.80;1.00;;;;;;4895808;29;20242;-49
2022/03/11 03:18:57;;;;;;;16.93;8.27;;;1.80;1.00;;;;;;4896029;29;20199;-50
2022/03/11 03:21:23;;;;;;;14.40;8.10;;;1.80;1.00;;;;;;4895396;29;20183;-50
2022/03/11 03:23:48;;;;;;;17.90;8.60;;;1.70;1.00;;;;;;4895848;29;20283;-51
2022/03/11 03:26:14;;;;;;;14.93;8.83;;;1.70;1.00;;;;;;4895749;29;20184;-54
2022/03/11 03:28:40;;;;;;;19.10;8.50;;;1.70;1.00;;;;;;4895419;29;20172;-52
2022/03/11 03:31:05;;;;;;;14.30;8.37;;;1.60;1.00;;;;;;4895673;29;20239;-50
2022/03/11 03:33:31;;;;;;;18.77;9.30;;;1.60;1.00;;;;;;4894948;29;20678;-50
2022/03/11 03:35:57;;;;;;;17.57;8.73;;;1.60;1.00;;;;;;4895573;29;20293;-50
2022/03/11 03:38:22;;;;;;;17.27;9.23;;;1.50;1.00;;;;;;4895904;29;20191;-50
2022/03/11 03:40:48;;;;;;;14.53;8.57;;;1.50;1.00;;;;;;4893937;29;20977;-50
2022/03/11 03:43:14;;;;;;;15.57;8.97;;;1.40;1.00;;;;;;4895371;29;20681;-50
2022/03/11 03:45:40;;;;;;;15.50;9.00;;;1.40;1.00;;;;;;4895332;29;20686;-49
2022/03/11 03:48:05;;;;;;;16.60;9.10;;;1.30;1.00;;;;;;4895214;29;20519;-50
2022/03/11 03:50:31;;;;;;;16.50;8.73;;;1.40;1.00;;;;;;4891089;29;20653;-50
2022/03/11 03:52:57;;;;;;;19.93;8.40;;;1.30;1.00;;;;;;4895544;29;20186;-50
2022/03/11 03:55:23;;;;;;;17.03;8.57;;;1.30;1.00;;;;;;4894552;29;20195;-50
2022/03/11 03:57:48;;;;;;;18.67;10.23;;;1.30;1.00;;;;;;4895891;29;20944;-50
2022/03/11 04:00:14;;;;;;;19.97;9.67;;;1.30;1.00;;;;;;4891670;29;20219;-51
2022/03/11 04:02:47;;;;;;;17.10;9.80;;;1.30;1.00;;;;;;4877663;29;20207;-50
2022/03/11 04:05:13;;;;;;;17.00;8.50;;;1.30;1.00;;;;;;4894479;29;20191;-51
2022/03/11 04:07:43;;;;;;;19.70;8.40;;;1.30;1.00;;;;;;4895175;29;20420;-50
2022/03/11 04:10:09;;;;;;;17.40;9.03;;;1.30;1.00;;;;;;4894136;29;20192;-50
2022/03/11 04:12:35;;;;;;;15.43;8.70;;;1.30;1.00;;;;;;4894815;29;20820;-50
2022/03/11 04:15:01;;;;;;;17.23;8.50;;;1.20;1.00;;;;;;4894939;29;20438;-50
2022/03/11 04:17:26;;;;;;;19.47;9.23;;;1.10;1.00;;;;;;4894833;29;20195;-50
2022/03/11 04:19:52;;;;;;;17.43;9.13;;;1.20;1.00;;;;;;4894778;29;20681;-50
2022/03/11 04:22:17;;;;;;;19.43;8.90;;;1.20;1.00;;;;;;4888153;29;20219;-49
2022/03/11 04:24:43;;;;;;;16.53;9.37;;;1.10;1.00;;;;;;4893436;29;20188;-50
2022/03/11 04:27:09;;;;;;;19.70;9.17;;;1.10;1.00;;;;;;4893156;29;20705;-50
2022/03/11 04:29:34;;;;;;;20.30;9.90;;;1.00;1.00;;;;;;4895016;29;20187;-50
2022/03/11 04:32:00;;;;;;;20.10;8.93;;;1.00;1.00;;;;;;4893679;29;20223;-50
2022/03/11 04:34:26;;;;;;;18.60;9.50;;;0.90;1.00;;;;;;4877687;29;20322;-50
2022/03/11 04:36:51;;;;;;;16.13;8.80;;;0.90;1.00;;;;;;4890178;29;20283;-50
2022/03/11 04:39:17;;;;;;;17.87;10.50;;;0.80;1.00;;;;;;4894971;29;20175;-49
2022/03/11 04:41:44;;;;;;;19.10;9.27;;;0.80;1.00;;;;;;4894374;29;20251;-49
2022/03/11 04:44:09;;;;;;;15.60;8.27;;;0.90;1.00;;;;;;4894767;29;20184;-51
2022/03/11 04:46:35;;;;;;;16.37;9.20;;;0.90;1.00;;;;;;4893788;29;20447;-50
2022/03/11 04:49:01;;;;;;;18.83;9.37;;;0.90;1.00;;;;;;4894599;29;20235;-50
2022/03/11 04:51:26;;;;;;;18.80;9.83;;;0.80;1.00;;;;;;4893306;29;20179;-50
2022/03/11 04:53:52;;;;;;;18.57;8.93;;;0.90;1.00;;;;;;4894716;29;20596;-50
2022/03/11 04:56:19;;;;;;;19.43;9.87;;;0.80;1.00;;;;;;4894716;29;20276;-50
2022/03/11 04:58:44;;;;;;;17.53;9.60;;;0.80;1.00;;;;;;4894295;29;20444;-50
2022/03/11 05:01:10;;;;;;;17.43;9.77;;;0.80;1.00;;;;;;4893030;29;20454;-50
2022/03/11 05:03:35;;;;;;;21.13;10.10;;;0.70;1.00;;;;;;4894390;29;20654;-49
2022/03/11 05:06:01;;;;;;;19.40;10.03;;;0.70;1.00;;;;;;4894264;29;20516;-50
2022/03/11 05:08:26;;;;;;;21.77;9.00;;;0.70;1.00;;;;;;4894356;29;20191;-50
2022/03/11 05:10:52;;;;;;;20.23;9.70;;;0.70;1.00;;;;;;4875874;29;20271;-50
2022/03/11 05:13:17;;;;;;;22.03;9.83;;;0.70;1.00;;;;;;4894122;29;20953;-50
2022/03/11 05:15:44;;;;;;;19.30;9.87;;;0.70;1.00;;;;;;4894370;29;20720;-50
2022/03/11 05:18:11;;;;;;;17.80;9.17;;;0.70;1.00;;;;;;4894363;29;20525;-50
2022/03/11 05:20:36;;;;;;;18.03;8.73;;;0.60;1.00;;;;;;4894255;29;20436;-50
2022/03/11 05:23:02;;;;;;;18.20;8.83;;;0.50;1.00;;;;;;4893610;29;20464;-50
2022/03/11 05:25:28;;;;;;;19.77;9.40;;;0.50;1.00;;;;;;4893726;29;20180;-50
2022/03/11 05:27:54;;;;;;;17.80;9.80;;;0.60;1.00;;;;;;4894611;29;20180;-50
2022/03/11 05:30:20;;;;;;;18.60;9.60;;;0.50;1.00;;;;;;4894246;29;20428;-49
2022/03/11 05:32:49;;;;;;;18.30;9.90;;;0.50;1.00;;;;;;4894437;29;20997;-50
2022/03/11 05:35:15;;;;;;;18.00;8.70;;;0.50;1.00;;;;;;4893524;29;20233;-55
2022/03/11 05:37:42;;;;;;;21.80;9.17;;;0.50;1.00;;;;;;4894095;29;20467;-50
2022/03/11 05:40:08;;;;;;;15.80;9.03;;;0.40;1.00;;;;;;4894115;29;20420;-50
2022/03/11 05:42:34;;;;;;;18.40;9.57;;;0.40;1.00;;;;;;4894168;29;20557;-50
2022/03/11 05:44:59;;;;;;;20.50;9.43;;;0.40;1.00;;;;;;4890329;29;20515;-50
2022/03/11 05:47:25;;;;;;;20.43;11.10;;;0.40;1.00;;;;;;4892937;29;20184;-51
2022/03/11 05:49:50;;;;;;;19.77;10.10;;;0.40;1.00;;;;;;4893492;29;20243;-50
2022/03/11 05:52:16;;;;;;;18.23;10.17;;;0.40;1.00;;;;;;4894388;29;20275;-49
2022/03/11 05:54:41;;;;;;;18.97;9.00;;;0.30;1.00;;;;;;4889733;29;20203;-49
2022/03/11 05:57:07;;;;;;;21.23;10.30;;;0.40;1.00;;;;;;4894102;29;20270;-50
2022/03/11 05:59:33;;;;;;;18.97;9.80;;;0.30;1.00;;;;;;4893979;29;20184;-50
2022/03/11 06:01:58;;;;;;;20.40;9.60;;;0.40;1.00;;;;;;4893811;29;20222;-50
2022/03/11 06:04:24;;;;;;;19.40;9.37;;;0.40;1.00;;;;;;4894548;29;20188;-49
2022/03/11 06:06:50;;;;;;;20.70;9.27;;;0.40;1.00;;;;;;4893935;29;20195;-50
2022/03/11 06:09:15;;;;;;;18.43;9.63;;;0.40;1.00;;;;;;4894474;29;20183;-50
2022/03/11 06:11:41;;;;;;;20.30;9.93;;;0.40;1.00;;;;;;4891297;29;20180;-50
2022/03/11 06:14:07;;;;;;;22.07;10.93;;;0.40;1.00;;;;;;4897393;29;20236;-50
2022/03/11 06:16:33;;;;;;;20.70;10.07;;;0.40;1.00;;;;;;4896768;29;20435;-50
2022/03/11 06:18:59;;;;;;;20.10;10.37;;;0.40;1.00;;;;;;4897272;29;20216;-49
2022/03/11 06:21:24;;;;;;;21.50;9.80;;;0.40;1.00;;;;;;4896894;29;20467;-50
2022/03/11 06:23:50;;;;;;;18.33;9.53;;;0.40;1.00;;;;;;4896927;29;20666;-49
2022/03/11 06:26:16;;;;;;;18.27;9.27;;;0.40;1.00;;;;;;4896781;29;20184;-50
2022/03/11 06:28:41;;;;;;;17.97;10.07;;;0.40;1.00;;;;;;4896917;29;20274;-50
2022/03/11 06:31:11;;;;;;;22.40;10.40;;;0.50;1.00;;;;;;4896903;29;20187;-50
2022/03/11 06:33:37;;;;;;;18.97;10.20;;;0.50;1.00;;;;;;4896656;29;20227;-50
2022/03/11 06:36:04;;;;;;;18.33;9.40;;;0.60;1.00;;;;;;4896766;29;20869;-50
2022/03/11 06:38:29;;;;;;;20.30;9.40;;;0.60;1.00;;;;;;4896845;29;20467;-50
2022/03/11 06:40:56;;;;;;;17.77;9.30;;;0.80;1.00;;;;;;4896470;29;20482;-50
2022/03/11 06:43:22;;;;;;;18.17;9.87;;;1.00;1.00;;;;;;4896728;29;20243;-50
2022/03/11 06:45:47;;;;;;;21.27;10.37;;;1.10;1.00;;;;;;4896520;29;20444;-50
2022/03/11 06:48:13;;;;;;;21.73;9.90;;;1.10;1.00;;;;;;4896640;29;20416;-49
2022/03/11 06:50:38;;;;;;;22.77;9.80;;;1.10;1.00;;;;;;4893089;29;20244;-51
2022/03/11 06:53:04;;;;;;;16.77;9.17;;;1.30;1.00;;;;;;4896563;29;20191;-50
2022/03/11 06:55:30;;;;;;;23.60;9.70;;;1.30;1.00;;;;;;4896197;29;20199;-50
2022/03/11 06:57:55;;;;;;;16.60;9.97;;;1.40;1.00;;;;;;4897233;29;20203;-49
2022/03/11 07:00:21;;;;;;;17.83;9.87;;;1.30;1.00;;;;;;4880083;29;20195;-50
2022/03/11 07:02:46;;;;;;;19.27;9.17;;;1.30;1.00;;;;;;4880618;29;20329;-51
2022/03/11 07:05:12;;;;;;;19.10;9.50;;;1.30;1.00;;;;;;4895980;29;20239;-50
2022/03/11 07:07:38;;;;;;;20.60;9.17;;;1.20;1.00;;;;;;4896288;29;20184;-50
2022/03/11 07:10:12;;;;;;;19.80;9.60;;;1.30;1.00;;;;;;4892404;29;20518;-50
2022/03/11 07:12:37;;;;;;;18.07;9.70;;;1.30;1.00;;;;;;4894404;29;20440;-50
2022/03/11 07:15:08;;;;;;;20.33;11.13;;;1.30;1.00;;;;;;4895924;29;20856;-50
2022/03/11 07:17:34;;;;;;;22.50;10.30;;;1.40;1.00;;;;;;4895551;29;20250;-50
2022/03/11 07:19:59;;;;;;;17.17;9.50;;;1.50;1.00;;;;;;4891770;29;20428;-50
2022/03/11 07:22:26;;;;;;;23.70;10.13;;;1.70;1.00;;;;;;4893251;29;20827;-50
2022/03/11 07:24:51;;;;;;;23.67;9.90;;;2.00;1.00;;;;;;4895166;29;20184;-50
2022/03/11 07:27:17;;;;;;;18.90;9.30;;;2.60;1.00;;;;;;4896507;29;20534;-49
2022/03/11 07:29:43;;;;;;;21.00;10.50;;;3.10;1.00;;;;;;4879682;29;20914;-50
2022/03/11 07:32:10;;;;;;;20.30;8.83;;;3.60;1.00;;;;;;4892206;29;20436;-52
2022/03/11 07:34:35;;;;;;;20.40;9.93;;;3.80;1.00;;;;;;4895808;29;20666;-50
2022/03/11 07:37:01;;;;;;;20.20;10.37;;;3.90;1.00;;;;;;4896001;29;20447;-50
2022/03/11 07:39:27;;;;;;;25.03;10.17;;;3.70;1.00;;;;;;4896371;29;20187;-50
2022/03/11 07:41:52;;;;;;;18.73;9.30;;;3.60;1.00;;;;;;4891780;29;20568;-50
2022/03/11 07:44:18;;;;;;;20.37;9.60;;;3.70;1.00;;;;;;4895771;29;20303;-53
2022/03/11 07:46:44;;;;;;;16.50;9.70;;;4.10;1.00;;;;;;4892526;29;20699;-50
2022/03/11 07:49:11;;;;;;;17.60;9.67;;;4.70;1.00;;;;;;4895681;29;20180;-51
2022/03/11 07:51:37;;;;;;;26.07;9.87;;;5.30;1.00;;;;;;4895471;29;20898;-50
2022/03/11 07:54:03;;;;;;;19.27;10.03;;;5.50;1.00;;;;;;4895053;29;20519;-51
2022/03/11 07:56:28;;;;;;;21.07;9.80;;;5.60;1.00;;;;;;4895234;29;20472;-50
2022/03/11 07:58:55;;;;;;;16.10;9.80;;;6.00;1.00;;;;;;4895298;29;20989;-51
2022/03/11 08:01:21;;;;;;;23.10;10.73;;;6.10;99.90;;;;;;4894784;29;20199;-51
2022/03/11 08:03:47;;;;;;;19.40;10.00;;;6.20;99.90;;;;;;4895490;29;21000;-51
2022/03/11 08:06:12;;;;;;;17.50;9.33;;;6.20;99.90;;;;;;4895471;29;20183;-50
2022/03/11 08:08:38;;;;;;;18.87;9.20;;;6.00;99.90;;;;;;4894719;29;20252;-52
2022/03/11 08:11:05;;;;;;;17.40;9.43;;;6.00;99.90;;;;;;4895423;29;20736;-50
2022/03/11 08:13:31;;;;;;;15.70;9.00;;;6.40;99.90;;;;;;4896352;29;20171;-51
2022/03/11 08:15:57;;;;;;;17.67;8.70;;;6.90;99.90;;;;;;4888709;29;20973;-50
2022/03/11 08:18:22;;;;;;;18.47;9.10;;;7.10;99.90;;;;;;4886413;29;20555;-51
2022/03/11 08:20:48;;;;;;;20.50;10.00;;;7.60;99.90;;;;;;4891751;29;20230;-51
2022/03/11 08:23:14;;;;;;;24.50;8.80;;;7.90;99.90;;;;;;4887427;29;20729;-50
2022/03/11 08:25:40;;;;;;;20.47;9.27;;;7.80;99.90;;;;;;4889165;29;20456;-51
2022/03/11 08:28:10;;;;;;;18.33;9.20;;;7.50;99.90;;;;;;4892840;29;20182;-50
2022/03/11 08:30:39;;;;;;;16.87;8.70;;;7.50;99.90;;;;;;4894441;29;20481;-51
2022/03/11 08:33:04;;;;;;;17.17;9.97;;;7.40;99.90;;;;;;4892431;29;20519;-50
2022/03/11 08:35:30;;;;;;;20.27;9.00;;;7.00;99.90;;;;;;4894769;29;20483;-52
2022/03/11 08:37:56;;;;;;;16.77;8.80;;;6.70;99.90;;;;;;4895195;29;20215;-50
2022/03/11 08:40:23;;;;;;;17.17;8.80;;;7.00;99.90;;;;;;4894565;29;20270;-50
2022/03/11 08:42:50;;;;;;;20.37;10.17;;;7.30;99.90;;;;;;4895711;29;20598;-51
2022/03/11 08:45:16;;;;;;;20.20;8.83;;;8.10;99.90;;;;;;4888442;29;20436;-51
2022/03/11 08:47:42;;;;;;;16.83;9.30;;;8.60;99.90;;;;;;4888779;29;20444;-51
2022/03/11 08:50:08;;;;;;;19.27;9.90;;;9.10;99.90;;;;;;4894681;29;20984;-51
2022/03/11 08:52:34;;;;;;;16.50;8.53;;;9.10;99.90;;;;;;4887659;29;20563;-52
2022/03/11 08:55:00;;;;;;;16.20;8.10;;;8.60;99.90;;;;;;4900153;29;20440;-52
2022/03/11 08:57:26;;;;;;;18.80;9.20;;;8.70;99.90;;;;;;4896061;29;20834;-52
2022/03/11 08:59:54;;;;;;;18.37;9.23;;;8.40;99.90;;;;;;4874108;29;20443;-52
2022/03/11 09:02:21;;;;;;;19.10;9.57;;;8.40;99.90;;;;;;4886047;29;20471;-52
2022/03/11 09:04:48;;;;;;;17.90;8.47;;;8.50;99.90;;;;;;4888098;29;20981;-50
2022/03/11 09:07:14;;;;;;;19.00;9.03;;;8.50;99.90;;;;;;4885769;29;21342;-52
2022/03/11 09:09:40;;;;;;;19.10;9.27;;;8.50;99.90;;;;;;4888507;29;20516;-51
2022/03/11 09:12:05;;;;;;;17.43;9.03;;;8.90;99.90;;;;;;4890247;29;20196;-51
2022/03/11 09:14:32;;;;;;;18.97;8.97;;;9.30;99.90;;;;;;4893943;29;20195;-53
2022/03/11 09:16:58;;;;;;;16.33;8.70;;;9.10;99.90;;;;;;4890145;29;20522;-51
2022/03/11 09:19:23;;;;;;;14.27;8.43;;;8.90;99.90;;;;;;4894451;29;20527;-52
2022/03/11 09:21:49;;;;;;;16.77;9.23;;;8.60;99.90;;;;;;4886784;29;21131;-52
2022/03/11 09:24:15;;;;;;;23.43;9.50;;;8.20;99.90;;;;;;4893875;29;20183;-52
2022/03/11 09:26:41;;;;;;;18.67;8.90;;;7.80;99.90;;;;;;4897461;29;20198;-53
2022/03/11 09:29:07;;;;;;;16.80;8.60;;;7.70;99.90;;;;;;4894109;29;20440;-52
2022/03/11 09:31:34;;;;;;;22.10;10.00;;;7.40;99.90;;;;;;4891757;29;20447;-52
2022/03/11 09:33:59;;;;;;;16.50;9.37;;;7.40;99.90;;;;;;4894669;29;20484;-52
2022/03/11 09:36:25;;;;;;;18.70;8.43;;;7.30;99.90;;;;;;4891614;29;21178;-52
2022/03/11 09:38:51;;;;;;;19.40;8.87;;;7.40;99.90;;;;;;4897333;29;20188;-52
2022/03/11 09:41:19;;;;;;;16.43;9.07;;;7.20;99.90;;;;;;4894981;29;20428;-52
2022/03/11 09:43:45;;;;;;;15.67;8.87;;;7.00;99.90;;;;;;4894605;29;20487;-52
2022/03/11 09:46:11;;;;;;;17.80;9.00;;;7.10;99.90;;;;;;4893782;29;20432;-53
2022/03/11 09:48:36;;;;;;;16.17;9.03;;;7.20;99.90;;;;;;4897926;29;20182;-52
2022/03/11 09:51:03;;;;;;;13.20;8.27;;;7.20;99.90;;;;;;4897345;29;20267;-52
2022/03/11 09:53:28;;;;;;;15.30;8.77;;;7.10;99.90;;;;;;4897779;29;20196;-52
2022/03/11 09:55:54;;;;;;;22.10;9.50;;;7.30;99.90;;;;;;4897956;29;20439;-52
2022/03/11 09:58:20;;;;;;;18.80;8.70;;;7.40;99.90;;;;;;4897717;29;20557;-52
2022/03/11 10:00:47;;;;;;;17.40;8.20;;;7.50;99.90;;;;;;4896949;29;20191;-52
2022/03/11 10:03:13;;;;;;;15.33;8.50;;;7.40;99.90;;;;;;4894343;29;20574;-51
2022/03/11 10:05:54;;;;;;;20.20;9.67;;;7.60;99.90;;;;;;4885460;29;20438;-52
2022/03/11 10:08:34;;;;;;;17.27;8.30;;;7.80;99.90;;;;;;4897418;29;20195;-51
2022/03/11 10:11:19;;;;;;;15.57;8.67;;;7.70;99.90;;;;;;4895977;29;20524;-51
2022/03/11 10:13:46;;;;;;;16.67;8.10;;;7.60;99.90;;;;;;4891341;29;20432;-51
2022/03/11 10:16:23;;;;;;;16.37;9.17;;;7.50;99.90;;;;;;4893718;29;20469;-52
2022/03/11 10:19:00;;;;;;;22.70;8.70;;;7.20;99.90;;;;;;4897298;29;20531;-52
2022/03/11 10:21:36;;;;;;;14.73;8.03;;;7.20;99.90;;;;;;4897366;29;20478;-51
2022/03/11 10:24:05;;;;;;;15.73;7.50;;;7.50;99.90;;;;;;4897920;29;20467;-51
2022/03/11 10:26:39;;;;;;;13.63;7.83;;;7.90;99.90;;;;;;4897177;29;20462;-52
2022/03/11 10:29:09;;;;;;;12.53;7.80;;;7.90;99.90;;;;;;4894037;29;20439;-52
2022/03/11 10:31:39;;;;;;;15.17;8.00;;;8.00;99.90;;;;;;4897359;29;20430;-52
2022/03/11 10:34:15;;;;;;;17.35;8.80;;;8.00;99.90;;;;;;4893851;29;20449;-52
2022/03/11 10:37:00;;;;;;;14.30;8.17;;;8.30;99.90;;;;;;4893433;29;20198;-51
2022/03/11 10:39:36;;;;;;;16.53;7.93;;;8.50;99.90;;;;;;4895192;29;20438;-51
2022/03/11 10:42:24;;;;;;;17.50;7.97;;;8.30;99.90;;;;;;4896391;29;20523;-52
2022/03/11 10:45:05;;;;;;;16.10;8.30;;;8.60;99.90;;;;;;4895550;29;20459;-52
2022/03/11 10:47:33;;;;;;;15.30;8.23;;;8.80;99.90;;;;;;4893413;29;20495;-53
2022/03/11 10:50:01;;;;;;;18.63;9.00;;;9.20;99.90;;;;;;4886408;29;20439;-52
2022/03/11 10:52:35;;;;;;;14.87;8.00;;;9.20;99.90;;;;;;4895239;29;20503;-52
2022/03/11 10:55:22;;;;;;;13.70;7.80;;;9.10;99.90;;;;;;4893093;29;20445;-53
2022/03/11 10:57:48;;;;;;;12.93;7.27;;;9.30;99.90;;;;;;4895238;29;21131;-52
2022/03/11 11:00:26;;;;;;;17.33;8.30;;;10.20;99.90;;;;;;4914863;29;20415;-52
2022/03/11 11:02:54;;;;;;;16.70;8.40;;;10.70;99.90;;;;;;4903410;29;21045;-53
2022/03/11 11:05:20;;;;;;;14.90;8.17;;;10.90;99.90;;;;;;4896084;29;20459;-57
2022/03/11 11:07:47;;;;;;;15.77;7.83;;;11.40;99.90;;;;;;4895728;29;20542;-63
2022/03/11 11:10:15;;;;;;;10.40;7.30;;;12.30;99.90;;;;;;4896721;29;20431;-60
2022/03/11 11:12:42;;;;;;;17.60;9.07;;;13.20;99.90;;;;;;4896115;29;20432;-62
2022/03/11 11:15:09;;;;;;;15.70;8.93;;;13.10;99.90;;;;;;4895852;29;20451;-54
2022/03/11 11:17:39;;;;;;;15.07;9.10;;;13.00;99.90;;;;;;4891821;29;20454;-54
2022/03/11 11:20:25;;;;;;;13.50;8.87;;;13.60;99.90;;;;;;4886919;29;20459;-54
2022/03/11 11:22:53;;;;;;;59.67;9.30;;;13.40;99.90;;;;;;4886851;29;20476;-53
2022/03/11 11:25:20;;;;;;;14.30;8.73;;;13.80;99.90;;;;;;4895511;29;20443;-53
2022/03/11 11:27:47;;;;;;;12.57;8.07;;;14.10;99.90;;;;;;4895112;29;20452;-54
2022/03/11 11:30:17;;;;;;;16.83;9.03;;;13.80;99.90;;;;;;4879340;29;20440;-54
2022/03/11 11:32:44;;;;;;;13.25;7.90;;;14.10;99.90;;;;;;4894634;29;20487;-55
2022/03/11 11:35:29;;;;;;;14.53;8.17;;;13.80;99.90;;;;;;4895502;29;20318;-55
2022/03/11 11:37:57;;;;;;;17.33;8.20;;;13.90;99.90;;;;;;4895693;29;20968;-54
2022/03/11 11:40:26;;;;;;;16.20;8.30;;;14.80;99.90;;;;;;4896470;29;20569;-53
2022/03/11 11:43:13;;;;;;;16.80;8.07;;;14.40;99.90;;;;;;4896171;29;20543;-54
2022/03/11 11:46:06;;;;;;;13.13;8.13;;;14.60;99.90;;;;;;4893529;29;20436;-53
2022/03/11 11:48:45;;;;;;;18.13;7.90;;;15.40;99.90;;;;;;4895827;29;20443;-54
2022/03/11 11:51:16;;;;;;;14.70;8.27;;;15.70;99.90;;;;;;4885709;29;20603;-54
2022/03/11 11:53:58;;;;;;;17.73;8.13;;;15.40;99.90;;;;;;4893700;29;20459;-55
2022/03/11 11:56:34;;;;;;;13.13;7.97;;;15.70;99.90;;;;;;4887935;29;20951;-55
2022/03/11 11:59:03;;;;;;;14.00;8.23;;;15.30;99.90;;;;;;4885189;29;20440;-54
2022/03/11 12:01:46;;;;;;;13.73;8.00;;;15.50;99.90;;;;;;4895012;29;20439;-55
2022/03/11 12:04:22;;;;;;;13.80;7.30;;;14.50;99.90;;;;;;4890629;29;20472;-54
2022/03/11 12:07:02;;;;;;;14.47;8.17;;;14.70;99.90;;;;;;4901026;29;20438;-53
2022/03/11 12:09:46;;;;;;;13.43;7.23;;;14.80;99.90;;;;;;4876098;29;20447;-54
2022/03/11 12:12:20;;;;;;;13.40;8.30;;;14.50;99.90;;;;;;4888478;29;20475;-55
2022/03/11 12:15:01;;;;;;;15.10;7.90;;;15.00;99.90;;;;;;4890428;29;20794;-55
2022/03/11 12:17:44;;;;;;;11.97;7.50;;;15.20;99.90;;;;;;4882768;29;20851;-53
2022/03/11 12:20:26;;;;;;;13.25;7.07;;;15.70;99.90;;;;;;4893444;29;20520;-53
2022/03/11 12:23:11;;;;;;;11.23;6.80;;;16.20;99.90;;;;;;4892363;29;20234;-54
2022/03/11 12:25:38;;;;;;;8.43;6.10;;;16.60;99.90;;;;;;4890910;29;20795;-54
2022/03/11 12:28:33;;;;;;;24.23;6.83;;;16.70;99.90;;;;;;4893066;29;20470;-52
2022/03/11 12:31:03;;;;;;;12.03;7.00;;;15.50;99.90;;;;;;4892779;29;20432;-52
2022/03/11 12:33:38;;;;;;;14.23;7.30;;;15.40;99.90;;;;;;4893074;29;20463;-53
2022/03/11 12:36:05;;;;;;;13.00;7.20;;;15.80;99.90;;;;;;4877416;29;20451;-52
2022/03/11 12:38:34;;;;;;;18.03;7.90;;;15.40;99.90;;;;;;4892617;29;20452;-52
2022/03/11 12:41:06;;;;;;;11.03;6.60;;;14.90;99.90;;;;;;4893200;29;20539;-52
2022/03/11 12:43:33;;;;;;;11.57;6.73;;;14.80;99.90;;;;;;4878248;29;20472;-52
2022/03/11 12:45:59;;;;;;;12.70;7.37;;;14.60;99.90;;;;;;4877755;29;20538;-53
2022/03/11 12:48:27;;;;;;;11.00;7.10;;;14.70;99.90;;;;;;4895400;29;20462;-52
2022/03/11 12:50:53;;;;;;;14.17;7.13;;;14.80;99.90;;;;;;4888097;29;20259;-53
2022/03/11 12:53:20;;;;;;;15.77;7.33;;;14.40;99.90;;;;;;4892915;29;20462;-53